Time;durP1;ratioP1;P1;durP2;ratioP2;P2;SDS_P1;SDS_P2;PMS_P1;PMS_P2;Temp;Humidity;BMP_temperature;BMP_pressure;BME280_temperature;BME280_humidity;BME280_pressure;Samples;Min_cycle;Max_cycle;Signal;HPM_P1;HPM_P2
2021/04/22 00:01:25;;;;;;;8.20;6.43;;;;;;;;;;5017215;28;20106;-83
2021/04/22 00:03:51;;;;;;;8.00;6.78;;;;;;;;;;5015514;28;20096;-82
2021/04/22 00:06:17;;;;;;;9.70;6.85;;;;;;;;;;5013564;28;20093;-82
2021/04/22 00:08:43;;;;;;;9.90;6.30;;;;;;;;;;5016971;28;20026;-82
2021/04/22 00:11:09;;;;;;;7.63;6.15;;;;;;;;;;5020266;28;20478;-81
2021/04/22 00:13:35;;;;;;;7.80;6.18;;;;;;;;;;5022328;28;20087;-82
2021/04/22 00:16:01;;;;;;;7.55;5.75;;;;;;;;;;5028733;28;20029;-81
2021/04/22 00:18:27;;;;;;;8.07;6.35;;;;;;;;;;5012617;28;20390;-82
2021/04/22 00:20:54;;;;;;;8.73;6.50;;;;;;;;;;5026740;28;20389;-82
2021/04/22 00:23:20;;;;;;;8.85;6.47;;;;;;;;;;5032775;28;20041;-83
2021/04/22 00:25:46;;;;;;;8.60;6.45;;;;;;;;;;5025464;28;20045;-82
2021/04/22 00:28:13;;;;;;;12.50;7.10;;;;;;;;;;5027577;28;20045;-82
2021/04/22 00:30:39;;;;;;;8.45;6.45;;;;;;;;;;5035199;28;20125;-81
2021/04/22 00:33:07;;;;;;;8.20;6.28;;;;;;;;;;5017105;28;20092;-82
2021/04/22 00:35:33;;;;;;;9.27;6.57;;;;;;;;;;5029831;28;20025;-82
2021/04/22 00:37:59;;;;;;;9.05;5.95;;;;;;;;;;5029071;28;20490;-82
2021/04/22 00:40:26;;;;;;;7.70;6.05;;;;;;;;;;5028240;28;20034;-82
2021/04/22 00:42:53;;;;;;;8.05;6.38;;;;;;;;;;5020223;28;20021;-82
2021/04/22 00:45:20;;;;;;;8.75;6.35;;;;;;;;;;5019895;28;20034;-81
2021/04/22 00:47:46;;;;;;;8.18;6.05;;;;;;;;;;5021090;28;20045;-82
2021/04/22 00:50:16;;;;;;;8.80;6.38;;;;;;;;;;5020032;28;20034;-82
2021/04/22 00:52:43;;;;;;;8.55;6.60;;;;;;;;;;5029445;28;20029;-82
2021/04/22 00:55:09;;;;;;;9.13;6.70;;;;;;;;;;5031569;28;20021;-82
2021/04/22 00:57:35;;;;;;;7.90;5.63;;;;;;;;;;5031286;28;20072;-82
2021/04/22 01:00:01;;;;;;;7.82;5.40;;;;;;;;;;5017958;28;20580;-82
2021/04/22 01:02:27;;;;;;;10.73;6.07;;;;;;;;;;5030488;28;20676;-82
2021/04/22 01:04:53;;;;;;;10.02;7.05;;;;;;;;;;5027032;28;20021;-82
2021/04/22 01:07:19;;;;;;;9.43;6.82;;;;;;;;;;5033444;28;20470;-82
2021/04/22 01:09:45;;;;;;;8.98;7.13;;;;;;;;;;5034424;28;20030;-82
2021/04/22 01:12:12;;;;;;;7.78;5.90;;;;;;;;;;5020349;28;20037;-82
2021/04/22 01:14:42;;;;;;;7.32;5.78;;;;;;;;;;5030552;28;20117;-82
2021/04/22 01:17:09;;;;;;;8.00;5.72;;;;;;;;;;5021378;28;20054;-82
2021/04/22 01:19:35;;;;;;;7.75;6.00;;;;;;;;;;5022936;28;20029;-82
2021/04/22 01:22:01;;;;;;;8.13;6.32;;;;;;;;;;5029866;28;20474;-82
2021/04/22 01:24:27;;;;;;;6.65;5.07;;;;;;;;;;5031362;28;20021;-82
2021/04/22 01:26:53;;;;;;;8.73;6.20;;;;;;;;;;5036038;28;20554;-82
2021/04/22 01:29:19;;;;;;;7.45;5.78;;;;;;;;;;5019455;28;20065;-82
2021/04/22 01:31:45;;;;;;;6.38;5.25;;;;;;;;;;5022065;28;20077;-81
2021/04/22 01:34:12;;;;;;;7.82;5.43;;;;;;;;;;5019167;28;20032;-82
2021/04/22 01:36:40;;;;;;;8.05;5.82;;;;;;;;;;5030718;28;20104;-82
2021/04/22 01:39:07;;;;;;;7.13;5.43;;;;;;;;;;5016995;28;20022;-82
2021/04/22 01:41:33;;;;;;;7.40;5.43;;;;;;;;;;5021633;28;20097;-82
2021/04/22 01:43:59;;;;;;;7.20;4.97;;;;;;;;;;5025386;28;20079;-82
2021/04/22 01:46:26;;;;;;;7.28;5.20;;;;;;;;;;5026658;28;20034;-82
2021/04/22 01:48:52;;;;;;;9.55;5.35;;;;;;;;;;5020993;28;20025;-82
2021/04/22 01:51:18;;;;;;;7.13;5.53;;;;;;;;;;5017977;28;20041;-82
2021/04/22 01:53:44;;;;;;;6.55;4.85;;;;;;;;;;5019050;28;20022;-82
2021/04/22 01:56:10;;;;;;;8.63;5.57;;;;;;;;;;5021989;28;20033;-82
2021/04/22 01:58:36;;;;;;;6.97;5.40;;;;;;;;;;5018822;28;20026;-82
2021/04/22 02:01:03;;;;;;;11.60;5.97;;;;;;;;;;5021643;28;20032;-82
2021/04/22 02:03:30;;;;;;;10.57;6.57;;;;;;;;;;5017761;28;20029;-82
2021/04/22 02:05:56;;;;;;;7.35;5.65;;;;;;;;;;5030292;28;20381;-82
2021/04/22 02:08:22;;;;;;;9.77;6.80;;;;;;;;;;5019372;28;20030;-82
2021/04/22 02:10:48;;;;;;;10.32;6.82;;;;;;;;;;5021545;28;20469;-83
2021/04/22 02:13:15;;;;;;;7.78;6.30;;;;;;;;;;5030733;28;20030;-82
2021/04/22 02:15:41;;;;;;;7.30;5.75;;;;;;;;;;5021318;28;20029;-82
2021/04/22 02:18:07;;;;;;;7.65;5.60;;;;;;;;;;5024361;28;20049;-82
2021/04/22 02:20:34;;;;;;;7.55;6.10;;;;;;;;;;5030823;28;20029;-82
2021/04/22 02:23:00;;;;;;;7.43;5.85;;;;;;;;;;5028434;28;20398;-82
2021/04/22 02:25:27;;;;;;;7.57;5.63;;;;;;;;;;5024004;28;20390;-82
2021/04/22 02:27:53;;;;;;;9.07;6.05;;;;;;;;;;5029750;28;20018;-82
2021/04/22 02:30:27;;;;;;;9.57;7.05;;;;;;;;;;5015036;28;20108;-82
2021/04/22 02:32:53;;;;;;;7.43;5.43;;;;;;;;;;5028722;28;20017;-82
2021/04/22 02:35:20;;;;;;;7.30;5.07;;;;;;;;;;5019184;28;20387;-81
2021/04/22 02:37:46;;;;;;;8.15;5.35;;;;;;;;;;5018466;28;20536;-82
2021/04/22 02:40:14;;;;;;;6.75;5.15;;;;;;;;;;5022875;28;20049;-82
2021/04/22 02:42:41;;;;;;;9.17;5.50;;;;;;;;;;5035384;28;20024;-82
2021/04/22 02:45:11;;;;;;;7.70;6.03;;;;;;;;;;5019586;28;20014;-81
2021/04/22 02:47:37;;;;;;;8.32;6.05;;;;;;;;;;5017418;28;20026;-81
2021/04/22 02:50:08;;;;;;;6.90;5.40;;;;;;;;;;5017997;28;20076;-82
2021/04/22 02:52:34;;;;;;;7.22;5.22;;;;;;;;;;5021605;28;20022;-82
2021/04/22 02:55:00;;;;;;;7.15;4.93;;;;;;;;;;5016593;28;20041;-82
2021/04/22 02:57:26;;;;;;;6.50;4.90;;;;;;;;;;5029023;28;20096;-82
2021/04/22 02:59:53;;;;;;;6.03;4.95;;;;;;;;;;5017900;28;20028;-82
2021/04/22 03:02:19;;;;;;;9.10;5.60;;;;;;;;;;5026092;28;20028;-82
2021/04/22 03:04:45;;;;;;;7.18;5.90;;;;;;;;;;5026315;28;20121;-82
2021/04/22 03:07:11;;;;;;;9.85;6.47;;;;;;;;;;5017968;28;20025;-82
2021/04/22 03:09:37;;;;;;;10.00;5.97;;;;;;;;;;5014679;28;20060;-82
2021/04/22 03:12:03;;;;;;;7.07;5.70;;;;;;;;;;5019153;28;20116;-81
2021/04/22 03:14:29;;;;;;;6.65;5.18;;;;;;;;;;5027162;28;20029;-81
2021/04/22 03:16:55;;;;;;;8.18;5.50;;;;;;;;;;5020985;28;20058;-82
2021/04/22 03:19:21;;;;;;;7.45;4.82;;;;;;;;;;5018930;28;20033;-82
2021/04/22 03:21:47;;;;;;;6.75;5.47;;;;;;;;;;5015679;28;20525;-82
2021/04/22 03:24:13;;;;;;;8.25;5.97;;;;;;;;;;5014875;28;20427;-82
2021/04/22 03:26:39;;;;;;;7.80;6.18;;;;;;;;;;5017082;28;20386;-82
2021/04/22 03:29:05;;;;;;;9.02;5.90;;;;;;;;;;5025847;28;20037;-82
2021/04/22 03:31:31;;;;;;;6.72;5.43;;;;;;;;;;5024220;28;20038;-82
2021/04/22 03:33:57;;;;;;;7.50;5.88;;;;;;;;;;5017473;28;20036;-82
2021/04/22 03:36:23;;;;;;;7.32;5.78;;;;;;;;;;5013529;28;20030;-81
2021/04/22 03:38:49;;;;;;;7.47;5.53;;;;;;;;;;5017368;28;20026;-82
2021/04/22 03:41:15;;;;;;;7.03;5.35;;;;;;;;;;5017335;28;20520;-82
2021/04/22 03:43:41;;;;;;;8.25;6.22;;;;;;;;;;5017327;28;20034;-83
2021/04/22 03:46:07;;;;;;;8.15;5.60;;;;;;;;;;5015305;28;20386;-82
2021/04/22 03:48:33;;;;;;;7.28;5.93;;;;;;;;;;5030134;28;20025;-82
2021/04/22 03:50:59;;;;;;;8.35;5.15;;;;;;;;;;5028593;28;20037;-82
2021/04/22 03:53:25;;;;;;;8.38;5.60;;;;;;;;;;5017969;28;20129;-82
2021/04/22 03:55:52;;;;;;;7.60;5.65;;;;;;;;;;5022195;28;20520;-82
2021/04/22 03:58:18;;;;;;;7.22;5.35;;;;;;;;;;5026050;28;20022;-82
2021/04/22 04:00:44;;;;;;;6.82;5.35;;;;;;;;;;5018430;28;20421;-82
2021/04/22 04:03:10;;;;;;;7.50;5.55;;;;;;;;;;5029028;28;20101;-82
2021/04/22 04:05:36;;;;;;;6.30;4.90;;;;;;;;;;5022339;28;20479;-81
2021/04/22 04:08:02;;;;;;;7.15;5.00;;;;;;;;;;5018093;28;20041;-81
2021/04/22 04:10:28;;;;;;;7.45;5.15;;;;;;;;;;5023833;28;20542;-82
2021/04/22 04:12:54;;;;;;;9.32;5.55;;;;;;;;;;5017389;28;20108;-82
2021/04/22 04:15:20;;;;;;;8.15;6.25;;;;;;;;;;5017334;28;20042;-82
2021/04/22 04:17:46;;;;;;;7.88;5.75;;;;;;;;;;5019915;28;20046;-82
2021/04/22 04:20:13;;;;;;;7.40;5.85;;;;;;;;;;5022689;28;20033;-82
2021/04/22 04:22:39;;;;;;;6.68;5.28;;;;;;;;;;5021647;28;20044;-82
2021/04/22 04:25:06;;;;;;;7.88;5.80;;;;;;;;;;5031149;28;20029;-82
2021/04/22 04:27:32;;;;;;;9.13;6.18;;;;;;;;;;5016850;28;20085;-82
2021/04/22 04:29:58;;;;;;;7.97;5.63;;;;;;;;;;5019257;28;20140;-82
2021/04/22 04:32:24;;;;;;;9.07;5.65;;;;;;;;;;5021432;28;20036;-82
2021/04/22 04:34:50;;;;;;;8.02;5.63;;;;;;;;;;5028219;28;20044;-81
2021/04/22 04:37:16;;;;;;;8.52;6.20;;;;;;;;;;5029140;28;20029;-82
2021/04/22 04:39:42;;;;;;;6.68;4.97;;;;;;;;;;5017985;28;20445;-82
2021/04/22 04:42:09;;;;;;;7.40;5.07;;;;;;;;;;5018172;28;20082;-82
2021/04/22 04:44:35;;;;;;;9.30;5.82;;;;;;;;;;5021442;28;20072;-82
2021/04/22 04:47:01;;;;;;;8.27;5.38;;;;;;;;;;5022334;28;20026;-82
2021/04/22 04:49:27;;;;;;;7.03;5.30;;;;;;;;;;5020495;28;20028;-82
2021/04/22 04:51:53;;;;;;;6.50;5.13;;;;;;;;;;5026512;28;20061;-81
2021/04/22 04:54:19;;;;;;;6.68;5.03;;;;;;;;;;5035093;28;20076;-82
2021/04/22 04:56:45;;;;;;;7.30;5.43;;;;;;;;;;5019897;28;20030;-82
2021/04/22 04:59:11;;;;;;;7.85;5.70;;;;;;;;;;5031019;28;20038;-82
2021/04/22 05:01:37;;;;;;;7.28;5.88;;;;;;;;;;5026080;28;20029;-83
2021/04/22 05:04:04;;;;;;;8.18;6.32;;;;;;;;;;5017590;28;20030;-82
2021/04/22 05:06:30;;;;;;;8.18;6.35;;;;;;;;;;5031314;28;20092;-82
2021/04/22 05:08:56;;;;;;;9.13;6.05;;;;;;;;;;5018978;28;20478;-82
2021/04/22 05:11:22;;;;;;;7.68;5.85;;;;;;;;;;5027048;28;20044;-82
2021/04/22 05:13:48;;;;;;;10.18;6.35;;;;;;;;;;5024335;28;20088;-82
2021/04/22 05:16:15;;;;;;;7.68;5.97;;;;;;;;;;5023928;28;20048;-82
2021/04/22 05:18:41;;;;;;;8.70;5.93;;;;;;;;;;5028420;28;20113;-81
2021/04/22 05:21:07;;;;;;;7.18;5.30;;;;;;;;;;5028335;28;20072;-82
2021/04/22 05:23:33;;;;;;;7.38;4.85;;;;;;;;;;5020856;28;20113;-82
2021/04/22 05:25:59;;;;;;;6.82;5.25;;;;;;;;;;5027060;28;20040;-82
2021/04/22 05:28:25;;;;;;;8.55;6.05;;;;;;;;;;5027456;28;20395;-82
2021/04/22 05:30:51;;;;;;;6.72;5.00;;;;;;;;;;5018779;28;20091;-81
2021/04/22 05:33:17;;;;;;;6.68;5.10;;;;;;;;;;5023004;28;20175;-81
2021/04/22 05:35:43;;;;;;;6.68;4.93;;;;;;;;;;5027464;28;20029;-81
2021/04/22 05:38:09;;;;;;;9.43;5.57;;;;;;;;;;5027197;28;20028;-81
2021/04/22 05:40:36;;;;;;;7.80;5.70;;;;;;;;;;5022331;28;20037;-82
2021/04/22 05:43:02;;;;;;;7.57;5.78;;;;;;;;;;5023759;28;20017;-82
2021/04/22 05:45:28;;;;;;;7.43;5.50;;;;;;;;;;5027309;28;20029;-82
2021/04/22 05:47:54;;;;;;;6.90;4.82;;;;;;;;;;5024621;28;20113;-81
2021/04/22 05:50:21;;;;;;;6.47;4.53;;;;;;;;;;5021232;28;20038;-81
2021/04/22 05:52:48;;;;;;;7.00;4.70;;;;;;;;;;5028708;28;20037;-81
2021/04/22 05:55:14;;;;;;;7.80;5.38;;;;;;;;;;5024953;28;20029;-82
2021/04/22 05:57:40;;;;;;;7.43;5.60;;;;;;;;;;5024621;28;20022;-81
2021/04/22 06:00:07;;;;;;;7.55;5.68;;;;;;;;;;5023813;28;20097;-81
2021/04/22 06:02:33;;;;;;;5.90;4.72;;;;;;;;;;5020451;28;20398;-82
2021/04/22 06:04:59;;;;;;;6.15;4.50;;;;;;;;;;5017822;28;20033;-83
2021/04/22 06:07:25;;;;;;;5.03;3.97;;;;;;;;;;5018871;28;20030;-82
2021/04/22 06:09:51;;;;;;;5.97;4.05;;;;;;;;;;5018995;28;20140;-82
2021/04/22 06:12:17;;;;;;;4.85;3.40;;;;;;;;;;5013115;28;20037;-80
2021/04/22 06:14:43;;;;;;;4.22;3.35;;;;;;;;;;5022498;28;20454;-82
2021/04/22 06:17:09;;;;;;;3.88;2.92;;;;;;;;;;5034001;28;20052;-81
2021/04/22 06:19:35;;;;;;;4.15;3.08;;;;;;;;;;5039329;28;20021;-83
2021/04/22 06:22:01;;;;;;;4.57;3.13;;;;;;;;;;5018566;28;20029;-82
2021/04/22 06:24:27;;;;;;;4.13;3.03;;;;;;;;;;5034062;28;20100;-83
2021/04/22 06:26:55;;;;;;;3.67;2.92;;;;;;;;;;5032867;28;20061;-82
2021/04/22 06:29:21;;;;;;;3.90;2.83;;;;;;;;;;5035273;28;20025;-81
2021/04/22 06:31:48;;;;;;;6.18;3.25;;;;;;;;;;5022324;28;20414;-82
2021/04/22 06:34:14;;;;;;;3.72;3.20;;;;;;;;;;5021946;28;20032;-82
2021/04/22 06:36:40;;;;;;;3.67;2.70;;;;;;;;;;5014212;28;20033;-81
2021/04/22 06:39:07;;;;;;;4.82;3.80;;;;;;;;;;5020106;28;20074;-81
2021/04/22 06:41:33;;;;;;;5.05;3.70;;;;;;;;;;5020640;28;20025;-81
2021/04/22 06:43:59;;;;;;;5.75;3.85;;;;;;;;;;5026643;28;20037;-82
2021/04/22 06:46:25;;;;;;;6.15;3.70;;;;;;;;;;5021934;28;20025;-82
2021/04/22 06:48:52;;;;;;;5.28;3.83;;;;;;;;;;5027021;28;20433;-81
2021/04/22 06:51:18;;;;;;;5.93;4.30;;;;;;;;;;5017891;28;20100;-82
2021/04/22 06:53:44;;;;;;;4.43;3.80;;;;;;;;;;5025141;28;20025;-82
2021/04/22 06:56:10;;;;;;;4.90;3.67;;;;;;;;;;5021245;28;20061;-82
2021/04/22 06:58:36;;;;;;;6.68;3.72;;;;;;;;;;5026044;28;20101;-82
2021/04/22 07:01:02;;;;;;;5.30;3.13;;;;;;;;;;5030452;28;20049;-82
2021/04/22 07:03:28;;;;;;;3.15;2.75;;;;;;;;;;5012058;28;20067;-83
2021/04/22 07:05:54;;;;;;;3.15;2.70;;;;;;;;;;5040370;28;20033;-82
2021/04/22 07:08:20;;;;;;;5.72;3.25;;;;;;;;;;5025267;28;20037;-83
2021/04/22 07:10:46;;;;;;;5.43;3.05;;;;;;;;;;5020790;28;20041;-80
2021/04/22 07:13:12;;;;;;;4.90;3.00;;;;;;;;;;5020685;28;20107;-80
2021/04/22 07:15:38;;;;;;;4.03;3.00;;;;;;;;;;5026130;28;20156;-80
2021/04/22 07:18:06;;;;;;;3.47;2.67;;;;;;;;;;5028004;28;20508;-83
2021/04/22 07:20:32;;;;;;;2.80;2.28;;;;;;;;;;5028232;28;20056;-81
2021/04/22 07:22:59;;;;;;;3.28;2.20;;;;;;;;;;5031307;28;20459;-81
2021/04/22 07:25:26;;;;;;;2.60;1.83;;;;;;;;;;5025798;28;20029;-81
2021/04/22 07:27:52;;;;;;;3.20;2.40;;;;;;;;;;5033111;28;20018;-81
2021/04/22 07:30:19;;;;;;;2.58;2.00;;;;;;;;;;5014552;28;20053;-82
2021/04/22 07:32:45;;;;;;;2.72;2.22;;;;;;;;;;5015960;28;20080;-82
2021/04/22 07:35:12;;;;;;;3.22;2.17;;;;;;;;;;5025071;28;20034;-81
2021/04/22 07:37:39;;;;;;;2.60;2.20;;;;;;;;;;5024588;28;20374;-81
2021/04/22 07:40:06;;;;;;;2.47;2.00;;;;;;;;;;5024891;28;20028;-81
2021/04/22 07:42:32;;;;;;;2.90;2.05;;;;;;;;;;5025546;28;20312;-81
2021/04/22 07:44:58;;;;;;;3.03;2.25;;;;;;;;;;5023044;28;20105;-81
2021/04/22 07:47:24;;;;;;;2.20;2.00;;;;;;;;;;5020775;28;20025;-81
2021/04/22 07:49:50;;;;;;;2.28;2.00;;;;;;;;;;5028933;28;20386;-81
2021/04/22 07:52:16;;;;;;;2.20;1.90;;;;;;;;;;5028404;28;20037;-81
2021/04/22 07:54:43;;;;;;;4.07;2.17;;;;;;;;;;5031025;28;20041;-82
2021/04/22 07:57:09;;;;;;;2.58;1.90;;;;;;;;;;5034352;28;20022;-81
2021/04/22 07:59:35;;;;;;;2.60;2.03;;;;;;;;;;5025284;28;20077;-82
2021/04/22 08:02:01;;;;;;;3.40;2.08;;;;;;;;;;5023993;28;20029;-81
2021/04/22 08:04:27;;;;;;;3.10;2.22;;;;;;;;;;5020328;28;20029;-82
2021/04/22 08:06:53;;;;;;;3.30;2.22;;;;;;;;;;5037502;28;20017;-82
2021/04/22 08:09:19;;;;;;;2.38;2.13;;;;;;;;;;5020518;28;20042;-82
2021/04/22 08:11:45;;;;;;;2.95;1.98;;;;;;;;;;5019062;28;20041;-82
2021/04/22 08:14:11;;;;;;;2.20;2.00;;;;;;;;;;5033499;28;20036;-83
2021/04/22 08:16:37;;;;;;;2.50;2.30;;;;;;;;;;5033329;28;20063;-82
2021/04/22 08:19:04;;;;;;;3.60;2.10;;;;;;;;;;5030118;28;20033;-82
2021/04/22 08:21:30;;;;;;;2.90;2.15;;;;;;;;;;5023115;28;20025;-82
2021/04/22 08:23:57;;;;;;;3.60;2.15;;;;;;;;;;5033287;28;20026;-82
2021/04/22 08:26:23;;;;;;;2.30;2.10;;;;;;;;;;5021248;28;20072;-82
2021/04/22 08:28:49;;;;;;;2.50;1.98;;;;;;;;;;5034866;28;20112;-82
2021/04/22 08:31:25;;;;;;;2.90;2.30;;;;;;;;;;5037915;28;20033;-82
2021/04/22 08:33:53;;;;;;;2.88;2.00;;;;;;;;;;5026101;28;20033;-82
2021/04/22 08:36:21;;;;;;;2.40;1.90;;;;;;;;;;5031233;28;20099;-82
2021/04/22 08:38:47;;;;;;;2.60;2.00;;;;;;;;;;5033341;28;20492;-82
2021/04/22 08:41:13;;;;;;;4.18;2.00;;;;;;;;;;5023638;28;20660;-82
2021/04/22 08:43:40;;;;;;;2.65;2.00;;;;;;;;;;5023539;28;20026;-82
2021/04/22 08:46:06;;;;;;;2.17;1.92;;;;;;;;;;5022795;28;20026;-82
2021/04/22 08:48:33;;;;;;;2.28;1.80;;;;;;;;;;5015789;28;20109;-82
2021/04/22 08:50:59;;;;;;;5.05;1.90;;;;;;;;;;5018040;28;20050;-81
2021/04/22 08:53:29;;;;;;;2.05;1.83;;;;;;;;;;5020625;28;20116;-82
2021/04/22 08:55:55;;;;;;;3.88;1.90;;;;;;;;;;5025244;28;20363;-82
2021/04/22 08:58:21;;;;;;;3.15;1.90;;;;;;;;;;5032165;28;20034;-82
2021/04/22 09:00:49;;;;;;;2.92;1.83;;;;;;;;;;5028870;28;20030;-82
2021/04/22 09:03:16;;;;;;;2.33;1.80;;;;;;;;;;5015737;28;20553;-81
2021/04/22 09:05:42;;;;;;;3.03;2.10;;;;;;;;;;5039475;28;20074;-81
2021/04/22 09:08:08;;;;;;;2.70;2.00;;;;;;;;;;5036073;28;20049;-82
2021/04/22 09:10:35;;;;;;;3.53;2.30;;;;;;;;;;5029641;28;20041;-82
2021/04/22 09:13:01;;;;;;;4.10;2.38;;;;;;;;;;5027278;28;20055;-82
2021/04/22 09:15:27;;;;;;;4.25;2.65;;;;;;;;;;5034370;28;20470;-82
2021/04/22 09:17:57;;;;;;;5.75;3.13;;;;;;;;;;5028723;28;20045;-81
2021/04/22 09:20:28;;;;;;;3.33;2.63;;;;;;;;;;5024363;28;20455;-81
2021/04/22 09:22:53;;;;;;;3.67;2.67;;;;;;;;;;5025490;28;20033;-81
2021/04/22 09:25:21;;;;;;;5.75;2.60;;;;;;;;;;5029811;28;20030;-81
2021/04/22 09:27:48;;;;;;;3.45;2.65;;;;;;;;;;5029559;28;20033;-82
2021/04/22 09:30:15;;;;;;;2.95;2.50;;;;;;;;;;5014227;28;20061;-83
2021/04/22 09:32:41;;;;;;;5.30;2.72;;;;;;;;;;5027812;28;20461;-83
2021/04/22 09:35:10;;;;;;;5.50;2.60;;;;;;;;;;5025777;28;20034;-83
2021/04/22 09:37:47;;;;;;;3.45;2.63;;;;;;;;;;5023254;28;20026;-82
2021/04/22 09:40:19;;;;;;;3.88;2.60;;;;;;;;;;5021606;28;20049;-82
2021/04/22 09:42:45;;;;;;;4.80;2.47;;;;;;;;;;5016173;28;20034;-82
2021/04/22 09:45:14;;;;;;;4.63;2.35;;;;;;;;;;5019778;28;20022;-81
2021/04/22 09:47:39;;;;;;;;;;;;;;;;;;5018052;28;20042;-82
2021/04/22 09:50:08;;;;;;;3.85;2.30;;;;;;;;;;5018003;28;19960;-82
2021/04/22 09:52:38;;;;;;;2.95;2.30;;;;;;;;;;5027425;28;20021;-82
2021/04/22 09:55:05;;;;;;;2.90;2.13;;;;;;;;;;5029877;28;20022;-82
2021/04/22 09:57:32;;;;;;;2.40;2.13;;;;;;;;;;5015372;28;20052;-82
2021/04/22 09:59:59;;;;;;;3.17;2.20;;;;;;;;;;5017751;28;20421;-82
2021/04/22 10:02:26;;;;;;;3.70;2.20;;;;;;;;;;5030170;28;20108;-81
2021/04/22 10:04:53;;;;;;;2.95;1.98;;;;;;;;;;5031401;28;20033;-82
2021/04/22 10:07:30;;;;;;;2.40;2.13;;;;;;;;;;5024643;28;20033;-82
2021/04/22 10:09:57;;;;;;;2.50;2.17;;;;;;;;;;5023234;28;20510;-83
2021/04/22 10:12:26;;;;;;;2.70;2.20;;;;;;;;;;5021125;28;20042;-82
2021/04/22 10:14:52;;;;;;;2.95;2.22;;;;;;;;;;5023833;28;20263;-83
2021/04/22 10:17:20;;;;;;;2.70;2.30;;;;;;;;;;5017020;28;20041;-83
2021/04/22 10:19:59;;;;;;;2.88;2.00;;;;;;;;;;5023444;28;20371;-82
2021/04/22 10:22:33;;;;;;;3.15;2.40;;;;;;;;;;5017833;28;20239;-82
2021/04/22 10:25:00;;;;;;;2.20;1.90;;;;;;;;;;5027820;28;20037;-83
2021/04/22 10:27:26;;;;;;;2.97;2.08;;;;;;;;;;5023926;28;20565;-83
2021/04/22 10:29:53;;;;;;;2.97;1.95;;;;;;;;;;5027624;28;20037;-82
2021/04/22 10:32:20;;;;;;;3.00;2.20;;;;;;;;;;5014264;28;20559;-83
2021/04/22 10:34:46;;;;;;;3.50;2.35;;;;;;;;;;5016119;28;20030;-82
2021/04/22 10:37:13;;;;;;;2.38;1.90;;;;;;;;;;5028754;28;20025;-81
2021/04/22 10:39:39;;;;;;;2.00;1.80;;;;;;;;;;5021782;28;20022;-82
2021/04/22 10:42:05;;;;;;;2.75;2.00;;;;;;;;;;5013794;28;20014;-82
2021/04/22 10:44:32;;;;;;;2.33;1.90;;;;;;;;;;5017399;28;20112;-82
2021/04/22 10:47:01;;;;;;;4.32;1.92;;;;;;;;;;5021826;28;20025;-82
2021/04/22 10:49:27;;;;;;;3.03;1.88;;;;;;;;;;5026511;28;20532;-82
2021/04/22 10:51:53;;;;;;;2.83;1.70;;;;;;;;;;5030299;28;20038;-81
2021/04/22 10:54:19;;;;;;;2.80;1.85;;;;;;;;;;5033559;28;20040;-82
2021/04/22 10:56:46;;;;;;;2.05;1.85;;;;;;;;;;5022154;28;20034;-82
2021/04/22 10:59:19;;;;;;;2.92;2.03;;;;;;;;;;5018512;28;20037;-81
2021/04/22 11:01:45;;;;;;;3.85;2.20;;;;;;;;;;5025738;28;20030;-84
2021/04/22 11:04:11;;;;;;;3.53;1.92;;;;;;;;;;5022323;28;20078;-84
2021/04/22 11:06:38;;;;;;;2.83;1.80;;;;;;;;;;5020816;28;20045;-83
2021/04/22 11:09:20;;;;;;;2.30;1.80;;;;;;;;;;5016414;28;20030;-84
2021/04/22 11:11:53;;;;;;;2.53;1.80;;;;;;;;;;5025271;28;20164;-83
2021/04/22 11:14:19;;;;;;;3.40;2.08;;;;;;;;;;5029307;28;20030;-83
2021/04/22 11:16:53;;;;;;;2.47;1.70;;;;;;;;;;5026844;28;20037;-82
2021/04/22 11:19:23;;;;;;;2.00;1.77;;;;;;;;;;5027706;28;20112;-82
2021/04/22 11:21:51;;;;;;;2.10;1.90;;;;;;;;;;5019012;28;20044;-81
2021/04/22 11:24:26;;;;;;;3.25;1.70;;;;;;;;;;5012374;28;20026;-81
2021/04/22 11:26:59;;;;;;;2.22;1.80;;;;;;;;;;5022304;28;20032;-81
2021/04/22 11:29:25;;;;;;;2.28;1.92;;;;;;;;;;5023190;28;20032;-82
2021/04/22 11:31:52;;;;;;;2.38;1.67;;;;;;;;;;5019569;28;20038;-81
2021/04/22 11:34:18;;;;;;;2.00;1.60;;;;;;;;;;5017768;28;20021;-82
2021/04/22 11:36:49;;;;;;;3.00;1.52;;;;;;;;;;5014094;28;20039;-82
2021/04/22 11:39:15;;;;;;;2.08;1.80;;;;;;;;;;5030976;28;20056;-82
2021/04/22 11:41:51;;;;;;;2.63;1.92;;;;;;;;;;5029058;28;20379;-81
2021/04/22 11:44:17;;;;;;;1.80;1.70;;;;;;;;;;5016905;28;20030;-81
2021/04/22 11:46:44;;;;;;;2.28;1.77;;;;;;;;;;5020765;28;20040;-81
2021/04/22 11:49:11;;;;;;;3.53;1.70;;;;;;;;;;5027304;28;20488;-82
2021/04/22 11:51:39;;;;;;;2.28;1.52;;;;;;;;;;5010489;28;20398;-82
2021/04/22 11:54:16;;;;;;;2.38;1.83;;;;;;;;;;5013777;28;20026;-82
2021/04/22 11:56:42;;;;;;;2.25;1.70;;;;;;;;;;5018786;28;20030;-82
2021/04/22 11:59:17;;;;;;;1.92;1.73;;;;;;;;;;5032594;28;20021;-82
2021/04/22 12:02:12;;;;;;;3.10;1.77;;;;;;;;;;5020722;28;20033;-82
2021/04/22 12:04:39;;;;;;;2.65;1.60;;;;;;;;;;5007547;28;20524;-81
2021/04/22 12:07:06;;;;;;;2.45;2.00;;;;;;;;;;5043307;28;20027;-81
2021/04/22 12:09:33;;;;;;;3.33;1.70;;;;;;;;;;5016442;28;20041;-82
2021/04/22 12:12:06;;;;;;;2.40;1.70;;;;;;;;;;5028624;28;20079;-82
2021/04/22 12:14:32;;;;;;;2.47;1.85;;;;;;;;;;5017733;28;20072;-82
2021/04/22 12:16:58;;;;;;;2.63;1.90;;;;;;;;;;5010244;28;20065;-82
2021/04/22 12:19:27;;;;;;;1.67;1.58;;;;;;;;;;5019276;28;20108;-82
2021/04/22 12:21:54;;;;;;;3.03;1.83;;;;;;;;;;5015449;28;20059;-81
2021/04/22 12:24:23;;;;;;;4.47;1.92;;;;;;;;;;5015798;28;20030;-82
2021/04/22 12:26:49;;;;;;;3.25;2.00;;;;;;;;;;5015265;28;20014;-82
2021/04/22 12:29:16;;;;;;;2.88;1.73;;;;;;;;;;5018206;28;20022;-82
2021/04/22 12:31:44;;;;;;;2.58;1.75;;;;;;;;;;5016707;28;20041;-82
2021/04/22 12:34:10;;;;;;;3.05;1.80;;;;;;;;;;5020260;28;20466;-82
2021/04/22 12:36:37;;;;;;;1.83;1.67;;;;;;;;;;5020861;28;20051;-81
2021/04/22 12:39:05;;;;;;;2.80;1.80;;;;;;;;;;5016942;28;20021;-82
2021/04/22 12:41:31;;;;;;;;;;;;;;;;;;5023927;28;20097;-82
2021/04/22 12:43:57;;;;;;;3.63;1.90;;;;;;;;;;5030185;28;19948;-82
2021/04/22 12:46:24;;;;;;;3.40;1.75;;;;;;;;;;5028021;28;20022;-82
2021/04/22 12:48:53;;;;;;;2.42;1.50;;;;;;;;;;5021327;28;20056;-81
2021/04/22 12:51:19;;;;;;;3.55;1.85;;;;;;;;;;5019874;28;20061;-82
2021/04/22 12:53:47;;;;;;;2.67;1.70;;;;;;;;;;5023911;28;20367;-81
2021/04/22 12:56:14;;;;;;;3.20;1.90;;;;;;;;;;5022149;28;20076;-82
2021/04/22 12:58:44;;;;;;;2.67;1.70;;;;;;;;;;5024452;28;20101;-80
2021/04/22 13:01:13;;;;;;;2.40;1.67;;;;;;;;;;5023975;28;20350;-79
2021/04/22 13:03:41;;;;;;;4.35;2.00;;;;;;;;;;5023717;28;20044;-79
2021/04/22 13:06:07;;;;;;;;;;;;;;;;;;5025582;28;20032;-79
2021/04/22 13:08:34;;;;;;;4.13;2.10;;;;;;;;;;5023209;28;19909;-80
2021/04/22 13:11:02;;;;;;;3.15;2.00;;;;;;;;;;5022680;28;20076;-79
2021/04/22 13:13:29;;;;;;;3.20;1.92;;;;;;;;;;5022655;28;20360;-80
2021/04/22 13:15:56;;;;;;;3.53;2.05;;;;;;;;;;5019020;28;20099;-80
2021/04/22 13:18:22;;;;;;;2.00;1.77;;;;;;;;;;5017302;28;20042;-80
2021/04/22 13:20:53;;;;;;;4.43;2.00;;;;;;;;;;5015589;28;20026;-80
2021/04/22 13:23:39;;;;;;;2.17;1.83;;;;;;;;;;5026607;28;20386;-80
2021/04/22 13:26:14;;;;;;;2.33;1.67;;;;;;;;;;5025058;28;20132;-80
2021/04/22 13:28:40;;;;;;;3.30;2.25;;;;;;;;;;5023559;28;20112;-80
2021/04/22 13:31:13;;;;;;;3.22;1.90;;;;;;;;;;5016625;28;20486;-81
2021/04/22 13:33:39;;;;;;;2.13;1.60;;;;;;;;;;5014633;28;20029;-80
2021/04/22 13:36:05;;;;;;;2.08;1.83;;;;;;;;;;5015684;28;20114;-80
2021/04/22 13:38:32;;;;;;;3.00;1.70;;;;;;;;;;5018155;28;20022;-80
2021/04/22 13:41:08;;;;;;;2.30;1.80;;;;;;;;;;5025493;28;20369;-80
2021/04/22 13:43:34;;;;;;;2.17;1.90;;;;;;;;;;5025230;28;20482;-81
2021/04/22 13:46:00;;;;;;;2.63;1.65;;;;;;;;;;5014934;28;20488;-81
2021/04/22 13:48:25;;;;;;;2.63;2.00;;;;;;;;;;5029414;28;20029;-81
2021/04/22 13:50:51;;;;;;;4.07;1.90;;;;;;;;;;5017032;28;20037;-81
2021/04/22 13:53:19;;;;;;;3.65;2.03;;;;;;;;;;5012305;28;20037;-80
2021/04/22 13:55:45;;;;;;;2.30;2.05;;;;;;;;;;5017852;28;20062;-80
2021/04/22 13:58:12;;;;;;;2.25;1.83;;;;;;;;;;5020764;28;20061;-81
2021/04/22 14:00:38;;;;;;;2.42;1.80;;;;;;;;;;5013525;28;20418;-82
2021/04/22 14:03:08;;;;;;;2.22;1.58;;;;;;;;;;5015997;28;20049;-81
2021/04/22 14:05:37;;;;;;;1.70;1.58;;;;;;;;;;5033789;28;20029;-81
2021/04/22 14:08:03;;;;;;;3.78;1.77;;;;;;;;;;5026839;28;20025;-81
2021/04/22 14:10:31;;;;;;;1.70;1.60;;;;;;;;;;5022481;28;20037;-81
2021/04/22 14:12:57;;;;;;;;;;;;;;;;;;5029742;28;20025;-79
2021/04/22 14:15:23;;;;;;;2.47;1.65;;;;;;;;;;5013830;28;20437;-81
2021/04/22 14:17:49;;;;;;;1.70;1.60;;;;;;;;;;5016662;28;20050;-81
2021/04/22 14:20:15;;;;;;;2.72;1.80;;;;;;;;;;5018111;28;20037;-81
2021/04/22 14:22:41;;;;;;;2.25;1.63;;;;;;;;;;5023527;28;20100;-80
2021/04/22 14:25:08;;;;;;;2.58;1.77;;;;;;;;;;5017715;28;20021;-79
2021/04/22 14:27:34;;;;;;;4.53;1.65;;;;;;;;;;5015837;28;20544;-82
2021/04/22 14:30:00;;;;;;;1.70;1.60;;;;;;;;;;5021941;28;20069;-81
2021/04/22 14:32:26;;;;;;;3.17;1.80;;;;;;;;;;5015978;28;20096;-81
2021/04/22 14:34:52;;;;;;;2.28;1.67;;;;;;;;;;5017272;28;20064;-81
2021/04/22 14:37:18;;;;;;;1.80;1.63;;;;;;;;;;5014123;28;20113;-80
2021/04/22 14:39:44;;;;;;;3.30;1.60;;;;;;;;;;5021375;28;20044;-80
2021/04/22 14:42:10;;;;;;;3.03;1.73;;;;;;;;;;5017314;28;20427;-80